createdAt,value
2022-09-12T00:00:19.159Z,52904.76
2022-09-12T00:01:22.105Z,52898.75
2022-09-12T00:02:24.914Z,52912.78
2022-09-12T00:03:27.466Z,52925.80
2022-09-12T00:04:30.964Z,52964.88
2022-09-12T00:05:33.627Z,52938.83
2022-09-12T00:06:36.195Z,52919.79
2022-09-12T00:07:39.179Z,52932.82
2022-09-12T00:08:41.894Z,52947.85
2022-09-12T00:09:45.650Z,52942.84
2022-09-12T00:10:48.311Z,52945.84
2022-09-12T00:11:51.186Z,52950.85
2022-09-12T00:12:53.749Z,52851.65
2022-09-12T00:13:56.314Z,52886.72
2022-09-12T00:14:59.702Z,52905.76
2022-09-12T00:16:02.373Z,52944.84
2022-09-12T00:17:05.072Z,52907.77
2022-09-12T00:18:07.707Z,52917.79
2022-09-12T00:19:10.278Z,52909.77
2022-09-12T00:20:13.561Z,52961.87
2022-09-12T00:21:16.334Z,52954.86
2022-09-12T00:22:19.008Z,52959.87
2022-09-12T00:23:21.678Z,52928.81
2022-09-12T00:24:24.350Z,52957.87
2022-09-12T00:25:27.634Z,52948.85
2022-09-12T00:26:33.367Z,52908.77
2022-09-12T00:27:36.041Z,52888.73
2022-09-12T00:28:38.708Z,52905.76
2022-09-12T00:29:41.585Z,52872.70
2022-09-12T00:30:44.463Z,52915.78
2022-09-12T00:31:47.478Z,52901.75
2022-09-12T00:32:50.208Z,52898.75
2022-09-12T00:33:52.888Z,52887.73
2022-09-12T00:34:55.648Z,52930.81
2022-09-12T00:35:58.935Z,52963.88
2022-09-12T00:37:02.124Z,52973.90
2022-09-12T00:38:05.099Z,52975.91
2022-09-12T00:39:08.066Z,52964.88
2022-09-12T00:40:11.236Z,52920.79
2022-09-12T00:41:14.637Z,52884.72
2022-09-12T00:42:17.927Z,52881.71
2022-09-12T00:43:21.008Z,52875.70
2022-09-12T00:44:23.984Z,52895.74
2022-09-12T00:45:27.756Z,52887.73
2022-09-12T00:46:31.066Z,52913.78
2022-09-12T00:47:33.945Z,52947.85
2022-09-12T00:48:36.812Z,52919.79
2022-09-12T00:49:40.088Z,52896.74
2022-09-12T00:50:42.772Z,52885.72
2022-09-12T00:51:45.663Z,52949.85
2022-09-12T00:52:48.310Z,52913.78
2022-09-12T00:53:51.591Z,52917.79
2022-09-12T00:54:54.774Z,52914.78
2022-09-12T00:55:57.852Z,52927.80
2022-09-12T00:57:00.728Z,52897.75
2022-09-12T00:58:03.598Z,52902.76
2022-09-12T00:59:06.782Z,52954.86
2022-09-12T01:00:09.654Z,52927.80
2022-09-12T01:01:12.856Z,52915.78
2022-09-12T01:02:15.965Z,52915.78
2022-09-12T01:03:18.801Z,52908.77
2022-09-12T01:04:21.904Z,52912.78
2022-09-12T01:05:24.746Z,52907.77
2022-09-12T01:06:27.519Z,52902.76
2022-09-12T01:07:30.706Z,52867.68
2022-09-12T01:08:33.687Z,52913.78
2022-09-12T01:09:36.683Z,52915.78
2022-09-12T01:10:39.223Z,52882.71
2022-09-12T01:11:42.304Z,52952.86
2022-09-12T01:12:45.485Z,52919.79
2022-09-12T01:13:48.461Z,52872.70
2022-09-12T01:14:51.240Z,52872.70
2022-09-12T01:15:54.015Z,52883.72
2022-09-12T01:16:57.186Z,52903.76
2022-09-12T01:18:00.299Z,52947.85
2022-09-12T01:19:02.942Z,52901.75
2022-09-12T01:20:05.818Z,52916.79
2022-09-12T01:21:08.687Z,52920.79
2022-09-12T01:22:11.247Z,52890.73
2022-09-12T01:23:14.129Z,52917.79
2022-09-12T01:24:16.702Z,52906.77
2022-09-12T01:25:19.403Z,52857.67
2022-09-12T01:26:21.934Z,52877.71
2022-09-12T01:27:25.025Z,52927.80
2022-09-12T01:28:28.090Z,52896.74
2022-09-12T01:29:31.069Z,52871.70
2022-09-12T01:30:34.052Z,52904.76
2022-09-12T01:31:36.822Z,52938.83
2022-09-12T01:32:39.588Z,52959.87
2022-09-12T01:33:42.807Z,52916.79
2022-09-12T01:34:45.656Z,52940.83
2022-09-12T01:35:48.517Z,52873.70
2022-09-12T01:36:51.289Z,52898.75
2022-09-12T01:37:53.961Z,52882.71
2022-09-12T01:38:56.936Z,52903.76
2022-09-12T01:39:59.755Z,52899.75
2022-09-12T01:41:02.796Z,52912.78
2022-09-12T01:42:05.890Z,52877.71
2022-09-12T01:43:08.663Z,52914.78
2022-09-12T01:44:12.343Z,52920.79
2022-09-12T01:45:15.737Z,52896.74
2022-09-12T01:46:19.104Z,52896.74
2022-09-12T01:47:22.082Z,52882.71
2022-09-12T01:48:25.267Z,52905.76
2022-09-12T01:49:28.347Z,52905.76
2022-09-12T01:50:31.115Z,52869.69
2022-09-12T01:51:34.251Z,52862.68
2022-09-12T01:52:37.385Z,52861.67
2022-09-12T01:53:40.464Z,52893.74
2022-09-12T01:54:43.130Z,52934.82
2022-09-12T01:55:46.208Z,52905.76
2022-09-12T01:56:48.994Z,52861.67
2022-09-12T01:57:51.754Z,52877.71
2022-09-12T01:58:54.429Z,52907.77
2022-09-12T01:59:57.513Z,52914.78
2022-09-12T02:01:00.796Z,52891.73
2022-09-12T02:02:03.841Z,52872.70
2022-09-12T02:03:06.639Z,52863.68
2022-09-12T02:04:09.637Z,52881.71
2022-09-12T02:05:12.801Z,52880.71
2022-09-12T02:06:15.875Z,52941.84
2022-09-12T02:07:19.075Z,52924.80
2022-09-12T02:08:21.735Z,52871.70
2022-09-12T02:09:24.914Z,52870.69
2022-09-12T02:10:32.262Z,52885.72
2022-09-12T02:11:32.609Z,52829.61
2022-09-12T02:12:35.375Z,52849.65
2022-09-12T02:13:38.049Z,52833.62
2022-09-12T02:14:40.845Z,52892.73
2022-09-12T02:15:44.988Z,52898.75
2022-09-12T02:16:47.849Z,52877.71
2022-09-12T02:17:50.470Z,52843.64
2022-09-12T02:18:53.247Z,52883.72
2022-09-12T02:19:56.227Z,52887.73
2022-09-12T02:20:58.993Z,52869.69
2022-09-12T02:22:01.972Z,52876.70
2022-09-12T02:23:05.042Z,52863.68
2022-09-12T02:24:07.625Z,52889.73
2022-09-12T02:25:10.722Z,52874.70
2022-09-12T02:26:13.989Z,52886.72
2022-09-12T02:27:16.856Z,52852.66
2022-09-12T02:28:19.827Z,52843.64
2022-09-12T02:29:22.804Z,52839.63
2022-09-12T02:30:25.926Z,52871.70
2022-09-12T02:31:29.067Z,52899.75
2022-09-12T02:32:31.838Z,52881.71
2022-09-12T02:33:34.714Z,52871.70
2022-09-12T02:34:37.490Z,52925.80
2022-09-12T02:35:40.472Z,52876.70
2022-09-12T02:36:43.346Z,52873.70
2022-09-12T02:37:46.427Z,52917.79
2022-09-12T02:38:48.961Z,52896.74
2022-09-12T02:39:51.719Z,52884.72
2022-09-12T02:40:54.669Z,52886.72
2022-09-12T02:41:57.413Z,52853.66
2022-09-12T02:43:00.286Z,52801.55
2022-09-12T02:44:03.373Z,52810.57
2022-09-12T02:45:05.919Z,52849.65
2022-09-12T02:46:08.958Z,52864.68
2022-09-12T02:47:12.289Z,52864.68
2022-09-12T02:48:15.058Z,52835.62
2022-09-12T02:49:17.629Z,52859.67
2022-09-12T02:50:20.611Z,52867.68
2022-09-12T02:51:23.895Z,52862.68
2022-09-12T02:52:26.788Z,52848.65
2022-09-12T02:53:29.326Z,52873.70
2022-09-12T02:54:32.202Z,52883.72
2022-09-12T02:55:35.188Z,52868.69
2022-09-12T02:56:38.267Z,52887.73
2022-09-12T02:57:41.353Z,52884.72
2022-09-12T02:58:44.103Z,52855.66
2022-09-12T02:59:47.000Z,52879.71
2022-09-12T03:00:49.662Z,52901.75
2022-09-12T03:01:52.403Z,52860.67
2022-09-12T03:02:55.000Z,52851.65
2022-09-12T03:03:57.769Z,52870.69
2022-09-12T03:05:00.555Z,52824.60
2022-09-12T03:06:03.446Z,52867.68
2022-09-12T03:07:06.189Z,52833.62
2022-09-12T03:08:08.861Z,52857.67
2022-09-12T03:09:11.550Z,52829.61
2022-09-12T03:10:14.510Z,52829.61
2022-09-12T03:11:17.507Z,52836.62
2022-09-12T03:12:20.258Z,52849.65
2022-09-12T03:13:23.063Z,52871.70
2022-09-12T03:14:26.115Z,52867.68
2022-09-12T03:15:28.979Z,52833.62
2022-09-12T03:16:34.717Z,52860.67
2022-09-12T03:17:37.552Z,52866.68
2022-09-12T03:18:40.020Z,52830.61
2022-09-12T03:19:42.840Z,52847.64
2022-09-12T03:20:45.709Z,52863.68
2022-09-12T03:21:48.591Z,52882.71
2022-09-12T03:22:51.458Z,52854.66
2022-09-12T03:23:54.339Z,52881.71
2022-09-12T03:24:57.323Z,52877.71
2022-09-12T03:26:00.392Z,52894.74
2022-09-12T03:27:06.353Z,52880.71
2022-09-12T03:28:09.123Z,52876.70
2022-09-12T03:29:12.088Z,52879.71
2022-09-12T03:30:15.290Z,52839.63
2022-09-12T03:31:18.458Z,52830.61
2022-09-12T03:32:21.326Z,52873.70
2022-09-12T03:33:25.789Z,52882.71
2022-09-12T03:34:28.745Z,52831.61
2022-09-12T03:35:35.065Z,52862.68
2022-09-12T03:36:38.151Z,52853.66
2022-09-12T03:37:41.263Z,52859.67
2022-09-12T03:38:44.426Z,52868.69
2022-09-12T03:39:47.473Z,52857.67
2022-09-12T03:40:54.575Z,52839.63
2022-09-12T03:41:54.568Z,52836.62
2022-09-12T03:42:57.342Z,52823.60
2022-09-12T03:44:00.121Z,52832.62
2022-09-12T03:45:03.020Z,52844.64
2022-09-12T03:46:05.624Z,52851.65
2022-09-12T03:47:11.232Z,52875.70
2022-09-12T03:48:13.045Z,52895.74
2022-09-12T03:49:15.927Z,52886.72
2022-09-12T03:50:19.511Z,52840.63
2022-09-12T03:51:22.500Z,52840.63
2022-09-12T03:52:25.153Z,52854.66
2022-09-12T03:53:28.481Z,52865.68
2022-09-12T03:54:32.283Z,52887.73
2022-09-12T03:56:56.474Z,52932.82
2022-09-12T03:58:00.283Z,52955.86
2022-09-12T03:59:03.606Z,52938.83
2022-09-12T04:00:06.803Z,52930.81
2022-09-12T04:01:22.311Z,52912.78
2022-09-12T04:02:25.365Z,52937.83
2022-09-12T04:03:28.622Z,52905.76
2022-09-12T04:04:32.218Z,52927.80
2022-09-12T04:05:38.883Z,52900.75
2022-09-12T04:06:42.159Z,52928.81
2022-09-12T04:07:46.395Z,52948.85
2022-09-12T04:08:59.211Z,52921.79
2022-09-12T04:10:02.377Z,52950.85
2022-09-12T04:11:15.773Z,52913.78
2022-09-12T04:12:24.819Z,52925.80
2022-09-12T04:13:27.988Z,52933.82
2022-09-12T04:14:40.933Z,52953.86
2022-09-12T04:15:43.704Z,52951.86
2022-09-12T04:16:54.444Z,52963.88
2022-09-12T04:18:00.426Z,52943.84
2022-09-12T04:19:03.758Z,52947.85
2022-09-12T04:20:06.831Z,52976.91
2022-09-12T04:21:09.714Z,52961.87
2022-09-12T04:22:12.475Z,52935.82
2022-09-12T04:23:15.148Z,52962.88
2022-09-12T04:24:18.046Z,52956.86
2022-09-12T04:25:20.804Z,52954.86
2022-09-12T04:26:23.669Z,52962.88
2022-09-12T04:27:26.453Z,52973.90
2022-09-12T04:28:29.364Z,52988.93
2022-09-12T04:29:32.297Z,52978.91
2022-09-12T04:30:35.230Z,52994.94
2022-09-12T04:31:38.148Z,53014.98
2022-09-12T04:32:40.928Z,52989.93
2022-09-12T04:33:43.798Z,52933.82
2022-09-12T04:34:46.597Z,52971.89
2022-09-12T04:35:49.341Z,52951.86
2022-09-12T04:36:52.224Z,53001.96
2022-09-12T04:37:55.299Z,52973.90
2022-09-12T04:38:58.426Z,52980.91
2022-09-12T04:40:01.216Z,52997.95
2022-09-12T04:41:04.531Z,52984.92
2022-09-12T04:42:07.923Z,52993.94
2022-09-12T04:43:14.385Z,53022.00
2022-09-12T04:44:15.824Z,52983.92
2022-09-12T04:45:18.899Z,53030.02
2022-09-12T04:46:30.098Z,52959.87
2022-09-12T04:47:33.049Z,52991.94
2022-09-12T04:48:35.917Z,52949.85
2022-09-12T04:49:38.802Z,52975.91
2022-09-12T04:50:42.493Z,52951.86
2022-09-12T04:51:45.361Z,52919.79
2022-09-12T04:52:48.560Z,52933.82
2022-09-12T04:53:51.417Z,52935.82
2022-09-12T04:54:54.493Z,52957.87
2022-09-12T04:55:57.588Z,52935.82
2022-09-12T04:57:01.285Z,52899.75
2022-09-12T04:58:04.587Z,52924.80
2022-09-12T04:59:08.287Z,52945.84
2022-09-12T05:00:11.450Z,52943.84
2022-09-12T05:01:14.486Z,52946.84
2022-09-12T05:02:18.074Z,52917.79
2022-09-12T05:03:21.396Z,52945.84
2022-09-12T05:04:24.474Z,52937.83
2022-09-12T05:05:27.353Z,52929.81
2022-09-12T05:06:30.230Z,52969.89
2022-09-12T05:07:33.092Z,52935.82
2022-09-12T05:08:36.048Z,52924.80
2022-09-12T05:09:39.148Z,52986.93
2022-09-12T05:10:41.823Z,52942.84
2022-09-12T05:12:04.255Z,53004.96
2022-09-12T05:12:50.834Z,52956.86
2022-09-12T05:14:06.015Z,53000.95
2022-09-12T05:15:09.289Z,53024.00
2022-09-12T05:16:12.445Z,52994.94
2022-09-12T05:17:15.368Z,52991.94
2022-09-12T05:20:58.180Z,53014.98
2022-09-12T05:22:01.155Z,52970.89
2022-09-12T05:23:03.934Z,52991.94
2022-09-12T05:24:07.728Z,52979.91
2022-09-12T05:25:11.195Z,52984.92
2022-09-12T05:26:17.473Z,52988.93
2022-09-12T05:27:20.345Z,52997.95
2022-09-12T05:28:23.133Z,53007.97
2022-09-12T05:29:28.879Z,53023.00
2022-09-12T05:30:31.620Z,52966.89
2022-09-12T05:31:34.988Z,52981.92
2022-09-12T05:32:48.018Z,52947.85
2022-09-12T05:33:51.513Z,52925.80
2022-09-12T05:34:57.764Z,52988.93
2022-09-12T05:36:00.548Z,52957.87
2022-09-12T05:37:03.314Z,52965.88
2022-09-12T05:38:06.815Z,52978.91
2022-09-12T05:39:09.889Z,52944.84
2022-09-12T05:40:13.034Z,52959.87
2022-09-12T05:41:29.051Z,52979.91
2022-09-12T05:42:37.970Z,52985.92
2022-09-12T05:43:41.177Z,52943.84
2022-09-12T05:44:47.720Z,52959.87
2022-09-12T05:45:57.828Z,52995.95
2022-09-12T05:47:04.115Z,52985.92
2022-09-12T05:48:07.283Z,52963.88
2022-09-12T05:49:14.781Z,52982.92
2022-09-12T05:50:21.039Z,52963.88
2022-09-12T05:51:26.343Z,52966.89
2022-09-12T05:52:29.838Z,52961.87
2022-09-12T05:53:34.483Z,52955.86
2022-09-12T05:54:39.003Z,53022.00
2022-09-12T05:55:42.469Z,52984.92
2022-09-12T05:56:45.444Z,53008.97
2022-09-12T05:57:51.278Z,53025.00
2022-09-12T05:59:02.544Z,53027.01
2022-09-12T06:00:05.726Z,53016.99
2022-09-12T06:01:14.564Z,53019.99
2022-09-12T06:02:17.886Z,53034.02
2022-09-12T06:03:20.724Z,53018.99
2022-09-12T06:04:25.635Z,53013.98
2022-09-12T06:05:28.917Z,52989.93
2022-09-12T06:06:36.080Z,53028.01
2022-09-12T06:07:38.999Z,53005.96
2022-09-12T06:08:45.088Z,52997.95
2022-09-12T06:09:49.114Z,53059.07
2022-09-12T06:10:51.990Z,52977.91
2022-09-12T06:11:54.955Z,53026.01
2022-09-12T06:12:58.450Z,52975.91
2022-09-12T06:14:01.642Z,52976.91
2022-09-12T06:15:04.619Z,52974.90
2022-09-12T06:16:08.105Z,52979.91
2022-09-12T06:17:11.399Z,52997.95
2022-09-12T06:18:14.250Z,52947.85
2022-09-12T06:19:18.383Z,52958.87
2022-09-12T06:20:21.870Z,53010.98
2022-09-12T06:21:25.263Z,53028.01
2022-09-12T06:22:28.629Z,53060.07
2022-09-12T06:23:31.807Z,53038.03
2022-09-12T06:24:34.904Z,53043.04
2022-09-12T06:25:38.369Z,53045.04
2022-09-12T06:26:41.871Z,53036.03
2022-09-12T06:27:44.848Z,53053.06
2022-09-12T06:28:47.952Z,53030.02
2022-09-12T06:29:51.426Z,53044.04
2022-09-12T06:30:54.544Z,53077.11
2022-09-12T06:31:57.361Z,53036.03
2022-09-12T06:33:00.153Z,53013.98
2022-09-12T06:34:03.011Z,53062.08
2022-09-12T06:35:06.723Z,53048.05
2022-09-12T06:36:12.341Z,53066.09
2022-09-12T06:37:17.278Z,53038.03
2022-09-12T06:38:20.862Z,53074.11
2022-09-12T06:39:24.558Z,53101.16
2022-09-12T06:40:27.439Z,53057.07
2022-09-12T06:41:30.316Z,53090.14
2022-09-12T06:42:33.900Z,53060.07
2022-09-12T06:43:37.607Z,53073.10
2022-09-12T06:44:41.285Z,53062.08
2022-09-12T06:45:44.596Z,53068.09
2022-09-12T06:46:47.438Z,53076.11
2022-09-12T06:47:50.839Z,53096.15
2022-09-12T06:48:54.023Z,53084.12
2022-09-12T06:49:57.715Z,53046.05
2022-09-12T06:51:00.703Z,53039.03
2022-09-12T06:52:03.702Z,53080.12
2022-09-12T06:53:07.075Z,53101.16
2022-09-12T06:54:11.479Z,53092.14
2022-09-12T06:55:19.457Z,53123.20
2022-09-12T06:56:19.173Z,53102.16
2022-09-12T06:57:23.563Z,53124.21
2022-09-12T06:58:27.489Z,53106.17
2022-09-12T06:59:30.126Z,53140.24
2022-09-12T07:00:33.426Z,53085.13
2022-09-12T07:01:36.474Z,53125.21
2022-09-12T07:02:46.935Z,53119.20
2022-09-12T07:03:49.929Z,53114.19
2022-09-12T07:04:52.791Z,53120.20
2022-09-12T07:05:55.778Z,53098.15
2022-09-12T07:06:59.160Z,53090.14
2022-09-12T07:08:02.759Z,53090.14
2022-09-12T07:09:05.730Z,53102.16
2022-09-12T07:10:08.805Z,53096.15
2022-09-12T07:11:14.147Z,53128.21
2022-09-12T07:12:17.528Z,53143.25
2022-09-12T07:13:20.607Z,53141.24
2022-09-12T07:14:24.000Z,53122.20
2022-09-12T07:15:31.202Z,53131.22
2022-09-12T07:16:39.090Z,53124.21
2022-09-12T07:17:42.132Z,53138.23
2022-09-12T07:18:45.530Z,53119.20
2022-09-12T07:19:49.324Z,53148.26
2022-09-12T07:20:52.109Z,53147.25
2022-09-12T07:21:58.504Z,53132.22
2022-09-12T07:22:59.314Z,53116.19
2022-09-12T07:24:02.178Z,53163.29
2022-09-12T07:25:06.770Z,53168.30
2022-09-12T07:26:10.493Z,53194.35
2022-09-12T07:27:13.851Z,53162.29
2022-09-12T07:28:17.546Z,53152.27
2022-09-12T07:29:37.709Z,53182.33
2022-09-12T07:30:25.992Z,53167.30
2022-09-12T07:31:28.834Z,53199.36
2022-09-12T07:32:31.723Z,53212.39
2022-09-12T07:33:35.905Z,53217.40
2022-09-12T07:34:39.102Z,53178.32
2022-09-12T07:35:42.565Z,53193.35
2022-09-12T07:36:46.110Z,53181.32
2022-09-12T07:37:49.140Z,53223.41
2022-09-12T07:38:55.615Z,53224.41
2022-09-12T07:39:56.495Z,53229.43
2022-09-12T07:40:59.620Z,53208.38
2022-09-12T07:42:02.819Z,53230.43
2022-09-12T07:43:06.168Z,53199.36
2022-09-12T07:44:09.577Z,53224.41
2022-09-12T07:45:13.266Z,53205.37
2022-09-12T07:46:19.503Z,53191.35
2022-09-12T07:47:23.430Z,53194.35
2022-09-12T07:48:28.864Z,53214.39
2022-09-12T07:49:31.830Z,53211.39
2022-09-12T07:50:35.739Z,53216.40
2022-09-12T07:51:38.724Z,53218.40
2022-09-12T07:52:41.615Z,53258.49
2022-09-12T07:53:45.696Z,53234.44
2022-09-12T07:54:51.418Z,53230.43
2022-09-12T07:55:54.709Z,53240.45
2022-09-12T07:57:02.089Z,53285.54
2022-09-12T07:58:05.687Z,53256.48
2022-09-12T07:59:35.305Z,53276.53
2022-09-12T08:00:22.793Z,53235.44
2022-09-12T08:01:26.341Z,53251.47
2022-09-12T08:02:30.044Z,53289.55
2022-09-12T08:03:36.259Z,53274.52
2022-09-12T08:04:39.324Z,53301.58
2022-09-12T08:05:43.506Z,53326.63
2022-09-12T08:06:47.060Z,53332.64
2022-09-12T08:07:57.836Z,53320.62
2022-09-12T08:09:01.264Z,53292.56
2022-09-12T08:10:09.459Z,53333.64
2022-09-12T08:11:15.055Z,53307.59
2022-09-12T08:12:18.145Z,53364.71
2022-09-12T08:13:21.263Z,53352.69
2022-09-12T08:14:24.274Z,53325.63
2022-09-12T08:15:27.632Z,53308.59
2022-09-12T08:16:30.722Z,53327.63
2022-09-12T08:17:33.989Z,53267.51
2022-09-12T08:18:38.810Z,53320.62
2022-09-12T08:19:42.307Z,53357.70
2022-09-12T08:20:46.822Z,53309.59
2022-09-12T08:21:49.735Z,53319.62
2022-09-12T08:22:52.775Z,53351.68
2022-09-12T08:23:55.650Z,53342.66
2022-09-12T08:24:58.614Z,53368.72
2022-09-12T08:26:12.650Z,53322.62
2022-09-12T08:27:15.923Z,53356.70
2022-09-12T08:28:19.220Z,53415.82
2022-09-12T08:29:22.920Z,53366.72
2022-09-12T08:30:27.036Z,53392.77
2022-09-12T08:31:30.191Z,53356.70
2022-09-12T08:32:33.408Z,53377.74
2022-09-12T08:33:37.105Z,53371.73
2022-09-12T08:34:40.248Z,53386.76
2022-09-12T08:35:43.444Z,53360.70
2022-09-12T08:36:47.410Z,53361.71
2022-09-12T08:37:50.121Z,53356.70
2022-09-12T08:38:57.381Z,53355.69
2022-09-12T08:40:06.025Z,53354.69
2022-09-12T08:41:11.234Z,53377.74
2022-09-12T08:42:14.120Z,53382.75
2022-09-12T08:43:17.360Z,53437.87
2022-09-12T08:44:20.366Z,53424.84
2022-09-12T08:45:23.858Z,53428.85
2022-09-12T08:46:27.001Z,53442.88
2022-09-12T08:47:33.307Z,53468.93
2022-09-12T08:48:36.570Z,53441.88
2022-09-12T08:49:39.651Z,53461.92
2022-09-12T08:50:49.983Z,53469.94
2022-09-12T08:51:53.273Z,53480.96
2022-09-12T08:52:56.460Z,53470.94
2022-09-12T08:53:59.561Z,53480.96
2022-09-12T08:55:02.429Z,53536.08
2022-09-12T08:56:05.593Z,53484.97
2022-09-12T08:57:09.085Z,53560.13
2022-09-12T08:58:12.520Z,53520.05
2022-09-12T08:59:15.760Z,53552.11
2022-09-12T09:00:18.798Z,53525.05
2022-09-12T09:01:21.916Z,53545.10
2022-09-12T09:02:24.872Z,53535.08
2022-09-12T09:03:27.570Z,53498.00
2022-09-12T09:04:30.655Z,53499.00
2022-09-12T09:05:36.699Z,53523.05
2022-09-12T09:06:42.014Z,53536.08
2022-09-12T09:07:45.006Z,53569.15
2022-09-12T09:08:48.227Z,53550.11
2022-09-12T09:09:51.143Z,53536.08
2022-09-12T09:10:54.143Z,53561.14
2022-09-12T09:13:17.532Z,53623.27
2022-09-12T09:14:21.082Z,53594.21
2022-09-12T09:15:24.083Z,53616.25
2022-09-12T09:16:26.964Z,53623.27
2022-09-12T09:17:30.442Z,53645.32
2022-09-12T09:18:33.660Z,53620.27
2022-09-12T09:19:37.387Z,53631.29
2022-09-12T09:20:41.055Z,53633.29
2022-09-12T09:21:46.562Z,53625.27
2022-09-12T09:22:49.519Z,53601.22
2022-09-12T09:23:52.933Z,53638.30
2022-09-12T09:24:55.896Z,53657.34
2022-09-12T09:25:58.972Z,53648.32
2022-09-12T09:27:01.951Z,53643.31
2022-09-12T09:28:05.032Z,53667.37
2022-09-12T09:29:08.426Z,53648.32
2022-09-12T09:30:12.004Z,53688.41
2022-09-12T09:31:15.344Z,53702.45
2022-09-12T09:32:19.481Z,53689.41
2022-09-12T09:33:24.710Z,53736.52
2022-09-12T09:34:29.723Z,53749.55
2022-09-12T09:35:36.513Z,53742.54
2022-09-12T09:36:38.770Z,53739.53
2022-09-12T09:37:42.455Z,53750.55
2022-09-12T09:38:45.574Z,53720.48
2022-09-12T09:39:48.567Z,53697.43
2022-09-12T09:40:51.811Z,53751.55
2022-09-12T09:41:58.385Z,53809.68
2022-09-12T09:43:01.844Z,53853.78
2022-09-12T09:44:08.842Z,53877.84
2022-09-12T09:45:12.305Z,53944.99
2022-09-12T09:46:15.653Z,54050.23
2022-09-12T09:47:19.304Z,54028.18
2022-09-12T09:48:23.798Z,54131.42
2022-09-12T09:49:26.898Z,54168.50
2022-09-12T09:50:30.270Z,54266.73
2022-09-12T09:51:34.669Z,54420.10
2022-09-12T09:52:39.172Z,54535.37
2022-09-12T09:53:47.689Z,54667.70
2022-09-12T09:54:51.089Z,54910.30
2022-09-12T09:55:54.174Z,55240.14
2022-09-12T09:56:57.858Z,55395.55
2022-09-12T09:58:05.268Z,55500.83
2022-09-12T09:59:08.361Z,55608.12
2022-09-12T10:00:11.913Z,55693.35
2022-09-12T10:01:21.595Z,55839.75
2022-09-12T10:02:24.977Z,55921.98
2022-09-12T10:03:28.429Z,56088.44
2022-09-12T10:04:35.975Z,56189.73
2022-09-12T10:05:38.269Z,56270.96
2022-09-12T10:06:41.434Z,56370.24
2022-09-12T10:07:45.025Z,56440.45
2022-09-12T10:08:48.245Z,56474.55
2022-09-12T10:09:51.396Z,56514.66
2022-09-12T10:10:54.384Z,56520.68
2022-09-12T10:11:57.464Z,56372.25
2022-09-12T10:13:04.238Z,56219.81
2022-09-12T10:14:06.873Z,56098.47
2022-09-12T10:15:09.669Z,55933.01
2022-09-12T10:16:13.060Z,55761.54
2022-09-12T10:17:16.836Z,55562.00
2022-09-12T10:18:20.011Z,55447.69
2022-09-12T10:19:22.812Z,55421.62
2022-09-12T10:20:25.699Z,55368.48
2022-09-12T10:21:28.867Z,55291.28
2022-09-12T10:22:32.605Z,55295.29
2022-09-12T10:23:35.768Z,55286.27
2022-09-12T10:24:39.227Z,55262.20
2022-09-12T10:25:42.205Z,55237.14
2022-09-12T10:26:45.365Z,55276.24
2022-09-12T10:27:50.728Z,55190.02
2022-09-12T10:28:54.127Z,55157.93
2022-09-12T10:29:57.776Z,55161.95
2022-09-12T10:31:00.878Z,55133.87
2022-09-12T10:32:03.860Z,55166.96
2022-09-12T10:33:06.810Z,55137.88
2022-09-12T10:34:09.723Z,55068.70
2022-09-12T10:35:12.691Z,55038.62
2022-09-12T10:36:16.072Z,55008.55
2022-09-12T10:37:19.432Z,54989.50
2022-09-12T10:38:22.627Z,54894.26
2022-09-12T10:39:25.706Z,54785.99
2022-09-12T10:40:28.893Z,54761.93
2022-09-12T10:41:32.852Z,54810.05
2022-09-12T10:42:35.922Z,54763.94
2022-09-12T10:43:42.131Z,54670.71
2022-09-12T10:44:46.753Z,54600.54
2022-09-12T10:45:50.033Z,54523.35
2022-09-12T10:46:53.004Z,54542.39
2022-09-12T10:47:56.594Z,54504.30
2022-09-12T10:48:59.377Z,54539.39
2022-09-12T10:50:02.634Z,54543.39
2022-09-12T10:51:07.722Z,54563.45
2022-09-12T10:52:10.764Z,54569.46
2022-09-12T10:53:16.737Z,54501.29
2022-09-12T10:54:26.515Z,54475.23
2022-09-12T10:55:32.594Z,54511.32
2022-09-12T10:56:36.209Z,54542.39
2022-09-12T10:57:39.338Z,54533.37
2022-09-12T10:58:42.145Z,54525.35
2022-09-12T10:59:47.386Z,54472.22
2022-09-12T11:00:50.630Z,54347.93
2022-09-12T11:01:54.181Z,54300.81
2022-09-12T11:02:57.723Z,54237.66
2022-09-12T11:04:01.399Z,54268.74
2022-09-12T11:05:04.724Z,54316.85
2022-09-12T11:06:09.212Z,54208.60
2022-09-12T11:07:12.379Z,54025.17
2022-09-12T11:08:20.104Z,53990.09
2022-09-12T11:09:26.040Z,53907.91
2022-09-12T11:10:36.297Z,53901.89
2022-09-12T11:11:39.971Z,53796.65
2022-09-12T11:12:43.815Z,53816.70
2022-09-12T11:13:48.371Z,53790.64
2022-09-12T11:14:51.166Z,53797.66
2022-09-12T11:15:54.289Z,53795.65
2022-09-12T11:16:57.120Z,53815.70
2022-09-12T11:17:59.663Z,53781.62
2022-09-12T11:19:03.586Z,53824.72
2022-09-12T11:20:07.009Z,53821.71
2022-09-12T11:21:10.567Z,53775.61
2022-09-12T11:22:13.469Z,53747.55
2022-09-12T11:23:16.289Z,53731.51
2022-09-12T11:24:19.797Z,53741.53
2022-09-12T11:25:27.576Z,53760.57
2022-09-12T11:26:31.801Z,53772.60
2022-09-12T11:27:35.196Z,53744.54
2022-09-12T11:28:38.163Z,53760.57
2022-09-12T11:29:41.152Z,53744.54
2022-09-12T11:30:44.551Z,53833.74
2022-09-12T11:31:47.814Z,53831.73
2022-09-12T11:32:51.586Z,53833.74
2022-09-12T11:33:56.799Z,53791.64
2022-09-12T11:34:59.396Z,53773.60
2022-09-12T11:36:02.464Z,53761.58
2022-09-12T11:37:09.849Z,53721.49
2022-09-12T11:38:10.151Z,53683.40
2022-09-12T11:39:13.558Z,53681.40
2022-09-12T11:40:17.131Z,53659.35
2022-09-12T11:41:20.218Z,53658.35
2022-09-12T11:42:24.014Z,53635.30
2022-09-12T11:43:27.104Z,53541.09
2022-09-12T11:44:30.482Z,53562.14
2022-09-12T11:45:37.607Z,53552.11
2022-09-12T11:46:41.138Z,53507.02
2022-09-12T11:47:44.014Z,53472.95
2022-09-12T11:48:47.144Z,53471.94
2022-09-12T11:49:52.142Z,53467.93
2022-09-12T11:50:55.205Z,53423.84
2022-09-12T11:51:58.892Z,53444.88
2022-09-12T11:53:02.081Z,53494.99
2022-09-12T11:54:05.674Z,53484.97
2022-09-12T11:55:09.383Z,53475.95
2022-09-12T11:56:12.847Z,53440.88
2022-09-12T11:57:16.539Z,53426.84
2022-09-12T11:58:20.236Z,53407.80
2022-09-12T11:59:24.649Z,53452.90
2022-09-12T12:00:27.952Z,53392.77
2022-09-12T12:01:38.840Z,53425.84
2022-09-12T12:02:39.098Z,53462.92
2022-09-12T12:03:42.338Z,53426.84
2022-09-12T12:04:45.994Z,53452.90
2022-09-12T12:05:51.848Z,53420.83
2022-09-12T12:06:55.127Z,53433.86
2022-09-12T12:07:58.817Z,53430.85
2022-09-12T12:09:02.093Z,53461.92
2022-09-12T12:10:05.385Z,53497.00
2022-09-12T12:11:08.673Z,53492.99
2022-09-12T12:12:12.164Z,53424.84
2022-09-12T12:13:19.345Z,53461.92
2022-09-12T12:14:22.394Z,53480.96
2022-09-12T12:15:31.967Z,53522.05
2022-09-12T12:16:34.875Z,53539.09
2022-09-12T12:17:38.490Z,53483.96
2022-09-12T12:18:41.788Z,53525.05
2022-09-12T12:19:45.685Z,53510.02
2022-09-12T12:20:48.966Z,53548.11
2022-09-12T12:21:52.248Z,53599.22
2022-09-12T12:22:54.928Z,53567.15
2022-09-12T12:23:58.224Z,53561.14
2022-09-12T12:25:01.901Z,53533.07
2022-09-12T12:26:05.187Z,53565.14
2022-09-12T12:27:11.849Z,53547.11
2022-09-12T12:28:16.049Z,53563.14
2022-09-12T12:29:19.440Z,53594.21
2022-09-12T12:30:22.886Z,53633.29
2022-09-12T12:31:26.201Z,53583.18
2022-09-12T12:32:29.391Z,53533.07
2022-09-12T12:33:32.894Z,53572.16